createdAt,value
2023-04-24T00:01:04.502Z,104.50
2023-04-24T00:03:09.348Z,131.80
2023-04-24T00:05:14.878Z,71.95
2023-04-24T00:07:17.716Z,87.97
2023-04-24T00:09:22.182Z,173.10
2023-04-24T00:11:23.719Z,47.67
2023-04-24T00:13:25.387Z,116.13
2023-04-24T00:15:29.938Z,33.17
2023-04-24T00:17:31.638Z,228.75
2023-04-24T00:19:36.180Z,254.10
2023-04-24T00:21:56.444Z,236.07
2023-04-24T00:23:57.976Z,250.05
2023-04-24T00:25:59.452Z,182.43
2023-04-24T00:28:01.070Z,161.40
2023-04-24T00:30:02.691Z,272.52
2023-04-24T00:32:04.149Z,10.52
2023-04-24T00:34:24.392Z,220.32
2023-04-24T00:36:28.596Z,184.98
2023-04-24T00:38:30.102Z,240.85
2023-04-24T00:40:34.444Z,218.55
2023-04-24T00:42:38.848Z,237.77
2023-04-24T00:46:44.212Z,218.57
2023-04-24T00:48:46.108Z,215.85
2023-04-24T00:50:47.807Z,226.02
2023-04-24T00:52:49.509Z,236.75
2023-04-24T00:54:51.169Z,239.93
2023-04-24T00:56:53.185Z,230.45
2023-04-24T00:58:57.511Z,235.20
2023-04-24T01:01:03.528Z,258.35
2023-04-24T01:03:08.284Z,258.65
2023-04-24T01:05:09.880Z,295.92
2023-04-24T01:09:35.916Z,261.08
2023-04-24T01:11:41.110Z,269.00
2023-04-24T01:13:42.616Z,244.60
2023-04-24T01:15:44.125Z,259.15
2023-04-24T01:17:46.208Z,244.25
2023-04-24T01:19:50.670Z,249.52
2023-04-24T01:21:58.068Z,283.60
2023-04-24T01:23:59.572Z,271.65
2023-04-24T01:26:04.160Z,262.52
2023-04-24T01:28:08.288Z,261.05
2023-04-24T01:30:13.274Z,268.65
2023-04-24T01:32:15.256Z,281.52
2023-04-24T01:34:35.604Z,249.77
2023-04-24T01:36:37.476Z,235.70
2023-04-24T01:38:39.217Z,265.60
2023-04-24T01:40:43.503Z,238.77
2023-04-24T01:42:44.959Z,281.30
2023-04-24T01:44:49.381Z,274.88
2023-04-24T01:49:14.936Z,243.90
2023-04-24T01:51:19.059Z,280.17
2023-04-24T01:53:20.722Z,264.48
2023-04-24T01:55:28.858Z,266.45
2023-04-24T01:57:42.473Z,279.65
2023-04-24T01:59:59.008Z,264.80
2023-04-24T02:02:16.150Z,247.00
2023-04-24T02:04:31.133Z,256.35
2023-04-24T02:06:43.999Z,272.97
2023-04-24T02:08:55.625Z,236.68
2023-04-24T02:11:12.460Z,255.20
2023-04-24T02:13:24.634Z,239.30
2023-04-24T02:15:40.982Z,215.70
2023-04-24T02:17:51.828Z,252.88
2023-04-24T02:20:07.029Z,237.23
2023-04-24T02:22:23.050Z,243.70
2023-04-24T02:24:40.768Z,248.43
2023-04-24T02:27:12.890Z,220.00
2023-04-24T02:29:30.169Z,236.27
2023-04-24T02:31:34.838Z,194.43
2023-04-24T02:33:39.460Z,251.52
2023-04-24T02:35:40.844Z,238.57
2023-04-24T02:37:42.244Z,226.27
2023-04-24T02:39:44.060Z,230.73
2023-04-24T02:41:45.887Z,219.52
2023-04-24T02:43:47.294Z,236.13
2023-04-24T02:45:54.682Z,242.77
2023-04-24T02:47:56.421Z,244.73
2023-04-24T02:49:58.041Z,240.85
2023-04-24T02:51:59.490Z,236.35
2023-04-24T02:54:00.978Z,249.23
2023-04-24T02:56:02.425Z,247.48
2023-04-24T03:00:09.972Z,235.75
2023-04-24T03:02:14.358Z,250.95
2023-04-24T03:04:21.343Z,245.65
2023-04-24T03:06:41.798Z,237.13
2023-04-24T03:08:43.285Z,253.68
2023-04-24T03:10:46.845Z,223.07
2023-04-24T03:12:56.061Z,244.30
2023-04-24T03:15:00.433Z,205.65
2023-04-24T03:17:01.913Z,235.65
2023-04-24T03:19:03.513Z,203.98
2023-04-24T03:21:05.015Z,229.77
2023-04-24T03:23:09.110Z,179.82
2023-04-24T03:25:13.504Z,225.52
2023-04-24T03:27:14.948Z,246.32
2023-04-24T03:31:23.488Z,225.80
2023-04-24T03:33:25.003Z,238.95
2023-04-24T03:35:29.006Z,232.88
2023-04-24T03:37:30.509Z,217.02
2023-04-24T03:39:31.893Z,174.63
2023-04-24T03:41:33.493Z,194.60
2023-04-24T03:43:35.597Z,247.02
2023-04-24T03:45:39.874Z,243.45
2023-04-24T03:47:41.418Z,225.07
2023-04-24T03:49:45.715Z,229.32
2023-04-24T03:51:47.112Z,225.68
2023-04-24T03:53:48.741Z,228.05
2023-04-24T03:55:50.169Z,197.93
2023-04-24T03:57:54.355Z,195.98
2023-04-24T03:59:58.703Z,217.13
2023-04-24T04:02:00.172Z,215.30
2023-04-24T04:04:05.117Z,216.23
2023-04-24T04:06:06.627Z,126.30
2023-04-24T04:08:08.022Z,194.38
2023-04-24T04:10:12.042Z,198.35
2023-04-24T04:12:32.128Z,157.27
2023-04-24T04:14:36.184Z,208.63
2023-04-24T04:16:40.482Z,198.25
2023-04-24T04:18:45.121Z,201.18
2023-04-24T04:20:46.531Z,185.45
2023-04-24T04:22:51.051Z,157.68
2023-04-24T04:24:55.328Z,168.35
2023-04-24T04:27:00.305Z,189.02
2023-04-24T04:29:04.645Z,185.20
2023-04-24T04:31:24.748Z,175.90
2023-04-24T04:33:28.918Z,166.77
2023-04-24T04:35:53.120Z,130.32
2023-04-24T04:37:54.579Z,153.95
2023-04-24T04:42:03.067Z,121.43
2023-04-24T04:44:07.503Z,136.10
2023-04-24T04:46:12.277Z,178.57
2023-04-24T04:48:14.866Z,91.70
2023-04-24T04:50:35.584Z,10.13
2023-04-24T04:52:39.657Z,10.98
2023-04-24T04:54:41.276Z,155.07
2023-04-24T04:58:49.489Z,9.27
2023-04-24T05:00:54.128Z,10.75
2023-04-24T05:03:06.197Z,9.07
2023-04-24T05:05:22.755Z,122.80
2023-04-24T05:07:24.313Z,143.48
2023-04-24T05:09:30.336Z,156.43
2023-04-24T05:11:34.945Z,9.07
2023-04-24T05:13:40.687Z,158.10
2023-04-24T05:15:42.877Z,79.30
2023-04-24T05:17:44.427Z,163.57
2023-04-24T05:19:46.376Z,178.98
2023-04-24T05:21:48.382Z,178.85
2023-04-24T05:24:09.050Z,183.13
2023-04-24T05:26:14.108Z,172.38
2023-04-24T05:28:18.235Z,179.40
2023-04-24T05:30:20.236Z,145.52
2023-04-24T05:32:21.718Z,149.80
2023-04-24T05:34:23.310Z,143.27
2023-04-24T05:36:24.909Z,144.93
2023-04-24T05:38:26.580Z,154.82
2023-04-24T05:40:31.182Z,151.77
2023-04-24T05:42:35.774Z,141.88
2023-04-24T05:44:37.249Z,133.20
2023-04-24T05:46:41.462Z,144.20
2023-04-24T05:48:43.079Z,144.23
2023-04-24T05:50:44.497Z,168.07
2023-04-24T05:54:50.251Z,151.88
2023-04-24T05:56:56.357Z,161.77
2023-04-24T05:59:01.082Z,157.82
2023-04-24T06:01:05.138Z,172.45
2023-04-24T06:03:09.696Z,160.68
2023-04-24T06:05:14.282Z,163.25
2023-04-24T06:07:18.483Z,170.30
2023-04-24T06:09:23.193Z,174.10
2023-04-24T06:11:27.591Z,180.85
2023-04-24T06:13:32.067Z,168.23
2023-04-24T06:15:36.798Z,196.38
2023-04-24T06:17:38.595Z,185.63
2023-04-24T06:19:40.205Z,232.95
2023-04-24T06:21:41.783Z,261.40
2023-04-24T06:24:01.964Z,206.48
2023-04-24T06:26:03.436Z,244.13
2023-04-24T06:30:09.367Z,286.33
2023-04-24T06:32:11.048Z,350.35
2023-04-24T06:34:12.461Z,417.30
2023-04-24T06:36:33.752Z,584.05
2023-04-24T06:38:35.559Z,665.92
2023-04-24T06:40:40.253Z,733.20
2023-04-24T06:42:42.093Z,775.95
2023-04-24T06:44:46.524Z,793.63
2023-04-24T06:46:47.976Z,797.13
2023-04-24T06:48:52.207Z,826.15
2023-04-24T06:50:53.683Z,829.72
2023-04-24T06:55:03.559Z,855.65
2023-04-24T06:57:05.064Z,852.88
2023-04-24T06:59:25.749Z,861.72
2023-04-24T07:01:27.262Z,916.97
2023-04-24T07:03:28.976Z,938.88
2023-04-24T07:05:30.805Z,959.55
2023-04-24T07:07:35.645Z,997.15
2023-04-24T07:09:39.735Z,999.42
2023-04-24T07:11:59.985Z,999.90
2023-04-24T07:14:04.260Z,999.90
2023-04-24T07:16:06.121Z,999.90
2023-04-24T07:18:10.351Z,999.90
2023-04-24T07:20:30.618Z,999.90
2023-04-24T07:22:32.166Z,999.90
2023-04-24T07:24:33.777Z,999.83
2023-04-24T07:26:35.392Z,999.90
2023-04-24T07:28:39.862Z,999.90
2023-04-24T07:30:44.295Z,999.90
2023-04-24T07:32:45.890Z,999.90
2023-04-24T07:34:50.509Z,999.90
2023-04-24T07:36:54.904Z,999.90
2023-04-24T07:38:57.561Z,999.90
2023-04-24T07:40:59.175Z,999.90
2023-04-24T07:43:03.484Z,905.65
2023-04-24T07:45:05.491Z,797.17
2023-04-24T07:47:25.410Z,972.75
2023-04-24T07:49:29.892Z,999.90
2023-04-24T07:51:39.109Z,999.90
2023-04-24T07:53:43.858Z,999.90
2023-04-24T07:55:45.297Z,999.90
2023-04-24T07:57:46.689Z,747.50
2023-04-24T07:59:48.056Z,732.08
2023-04-24T08:01:52.305Z,831.17
2023-04-24T08:03:56.165Z,582.38
2023-04-24T08:06:01.738Z,676.60
2023-04-24T08:08:08.378Z,622.80
2023-04-24T08:10:13.552Z,689.65
2023-04-24T08:12:20.217Z,734.30
2023-04-24T08:14:27.215Z,509.05
2023-04-24T08:18:35.812Z,462.83
2023-04-24T08:20:42.624Z,660.90
2023-04-24T08:22:50.353Z,648.50
2023-04-24T08:24:54.133Z,891.08
2023-04-24T08:27:00.741Z,999.90
2023-04-24T08:31:06.361Z,999.90
2023-04-24T08:33:12.812Z,999.90
2023-04-24T08:35:15.510Z,999.90
2023-04-24T08:37:18.445Z,999.90
2023-04-24T08:39:22.478Z,999.90
2023-04-24T08:41:28.601Z,999.90
2023-04-24T08:43:35.422Z,999.90
2023-04-24T08:45:37.133Z,999.90
2023-04-24T08:47:42.122Z,999.90
2023-04-24T08:49:48.897Z,999.90
2023-04-24T08:51:50.683Z,999.90
2023-04-24T08:53:54.744Z,999.90
2023-04-24T08:55:59.250Z,999.90
2023-04-24T08:58:00.781Z,999.90
2023-04-24T09:00:05.718Z,999.90
2023-04-24T09:02:10.900Z,999.90
2023-04-24T09:04:14.454Z,999.90
2023-04-24T09:06:17.114Z,999.90
2023-04-24T09:08:24.508Z,999.90
2023-04-24T09:10:31.613Z,989.88
2023-04-24T09:12:52.014Z,957.65
2023-04-24T09:14:53.895Z,956.67
2023-04-24T09:16:58.595Z,937.60
2023-04-24T09:19:00.225Z,938.88
2023-04-24T09:21:07.565Z,925.50
2023-04-24T09:23:17.256Z,911.83
2023-04-24T09:25:22.321Z,908.17
2023-04-24T09:27:28.967Z,898.28
2023-04-24T09:29:30.493Z,887.67
2023-04-24T09:31:50.536Z,897.50
2023-04-24T09:34:10.647Z,905.83
2023-04-24T09:36:18.417Z,933.72
2023-04-24T09:38:28.518Z,938.38
2023-04-24T09:40:29.970Z,957.65
2023-04-24T09:42:34.155Z,965.13
2023-04-24T09:44:35.714Z,985.67
2023-04-24T09:46:40.226Z,992.30
2023-04-24T09:48:41.798Z,999.90
2023-04-24T09:50:53.038Z,999.90
2023-04-24T09:53:13.171Z,998.85
2023-04-24T09:55:17.994Z,999.65
2023-04-24T09:57:22.104Z,999.90
2023-04-24T09:59:26.674Z,981.85
2023-04-24T10:01:33.929Z,986.08
2023-04-24T10:03:35.764Z,984.40
2023-04-24T10:05:37.740Z,984.35
2023-04-24T10:07:42.386Z,982.97
2023-04-24T10:09:44.381Z,979.88
2023-04-24T10:11:47.301Z,958.28
2023-04-24T10:13:53.001Z,954.47
2023-04-24T10:15:57.611Z,917.28
2023-04-24T10:18:03.103Z,915.97
2023-04-24T10:20:08.130Z,893.90
2023-04-24T10:22:12.638Z,896.72
2023-04-24T10:24:17.706Z,881.08
2023-04-24T10:26:20.341Z,879.67
2023-04-24T10:28:22.034Z,857.33
2023-04-24T10:30:23.483Z,835.85
2023-04-24T10:32:24.995Z,803.60
2023-04-24T10:34:45.054Z,794.42
2023-04-24T10:36:49.088Z,807.08
2023-04-24T10:38:53.798Z,805.95
2023-04-24T10:41:11.600Z,822.97
2023-04-24T10:43:17.386Z,788.97
2023-04-24T10:45:23.133Z,802.85
2023-04-24T10:47:24.850Z,774.78
2023-04-24T10:49:29.993Z,785.95
2023-04-24T10:51:51.129Z,783.03
2023-04-24T10:53:58.396Z,748.70
2023-04-24T10:56:06.358Z,722.50
2023-04-24T10:58:07.914Z,638.60
2023-04-24T11:00:13.545Z,616.75
2023-04-24T11:02:16.410Z,630.35
2023-04-24T11:04:29.635Z,635.25
2023-04-24T11:06:36.802Z,646.47
2023-04-24T11:08:44.823Z,625.17
2023-04-24T11:11:08.932Z,650.85
2023-04-24T11:13:10.979Z,633.67
2023-04-24T11:15:33.601Z,655.28
2023-04-24T11:17:39.160Z,665.88
2023-04-24T11:19:45.522Z,669.17
2023-04-24T11:21:57.031Z,652.55
2023-04-24T11:23:59.251Z,641.88
2023-04-24T11:26:24.706Z,642.22
2023-04-24T11:28:30.348Z,617.00
2023-04-24T11:30:34.028Z,599.42
2023-04-24T11:32:43.571Z,598.13
2023-04-24T11:34:53.629Z,591.38
2023-04-24T11:36:58.541Z,582.47
2023-04-24T11:39:01.213Z,591.15
2023-04-24T11:41:04.552Z,579.00
2023-04-24T11:43:08.005Z,592.57
2023-04-24T11:45:14.361Z,577.15
2023-04-24T11:47:20.431Z,589.65
2023-04-24T11:49:25.037Z,581.55
2023-04-24T11:51:31.261Z,552.25
2023-04-24T11:53:38.320Z,521.70
2023-04-24T11:55:42.709Z,511.88
2023-04-24T11:57:48.336Z,508.08
2023-04-24T11:59:50.392Z,493.80
2023-04-24T12:01:54.690Z,484.20
2023-04-24T12:04:00.940Z,496.02
2023-04-24T12:06:09.306Z,483.25
2023-04-24T12:08:27.608Z,472.25
2023-04-24T12:10:30.088Z,471.10
2023-04-24T12:12:52.237Z,466.55
2023-04-24T12:14:54.931Z,430.77
2023-04-24T12:16:56.744Z,446.63
2023-04-24T12:18:58.966Z,435.65
2023-04-24T12:21:22.086Z,415.25
2023-04-24T12:23:39.405Z,410.38
2023-04-24T12:25:42.030Z,412.15
2023-04-24T12:27:44.428Z,416.08
2023-04-24T12:29:56.833Z,419.40
2023-04-24T12:32:00.866Z,394.85
2023-04-24T12:34:05.436Z,408.90
2023-04-24T12:36:27.890Z,425.38
2023-04-24T12:38:32.332Z,403.48
2023-04-24T12:42:50.516Z,373.23
2023-04-24T12:44:57.065Z,345.40
2023-04-24T12:46:58.884Z,366.83
2023-04-24T12:49:00.832Z,398.77
2023-04-24T12:51:02.657Z,446.13
2023-04-24T12:53:07.344Z,412.15
2023-04-24T12:55:10.062Z,430.67
2023-04-24T12:57:14.725Z,418.48
2023-04-24T12:59:16.339Z,449.90
2023-04-24T13:01:17.793Z,362.00
2023-04-24T13:03:19.541Z,380.23
2023-04-24T13:05:22.026Z,432.42
2023-04-24T13:07:25.561Z,412.42
2023-04-24T13:09:27.009Z,416.67
2023-04-24T13:11:28.559Z,418.15
2023-04-24T13:13:32.578Z,306.92
2023-04-24T13:17:38.196Z,307.80
2023-04-24T13:19:40.848Z,326.65
2023-04-24T13:21:42.316Z,365.05
2023-04-24T13:23:47.000Z,285.33
2023-04-24T13:25:51.747Z,290.27
2023-04-24T13:27:56.234Z,286.08
2023-04-24T13:30:00.360Z,289.30
2023-04-24T13:34:06.236Z,278.10
2023-04-24T13:36:27.280Z,299.00
2023-04-24T13:38:31.893Z,278.67
2023-04-24T13:40:33.938Z,305.13
2023-04-24T13:42:35.439Z,281.58
2023-04-24T13:44:39.869Z,275.40
2023-04-24T13:46:41.513Z,245.98
2023-04-24T13:48:46.029Z,273.42
2023-04-24T13:50:50.685Z,263.73
2023-04-24T13:52:52.532Z,292.38
2023-04-24T13:54:57.081Z,279.60
2023-04-24T13:57:04.920Z,264.77
2023-04-24T13:59:09.742Z,276.98
2023-04-24T14:01:11.554Z,281.13
2023-04-24T14:03:13.539Z,285.63
2023-04-24T14:05:18.313Z,282.65
2023-04-24T14:07:19.872Z,283.52
2023-04-24T14:09:21.498Z,220.00
2023-04-24T14:11:27.229Z,200.25
2023-04-24T14:13:31.591Z,7.75
2023-04-24T14:15:34.605Z,8.68
2023-04-24T14:17:38.946Z,7.75
2023-04-24T14:19:45.026Z,8.90
2023-04-24T14:21:58.676Z,9.60
2023-04-24T14:24:17.410Z,7.60
2023-04-24T14:26:25.080Z,8.48
2023-04-24T14:28:31.723Z,10.80
2023-04-24T14:30:40.373Z,8.25
2023-04-24T14:32:47.430Z,10.27
2023-04-24T14:34:53.813Z,9.07
2023-04-24T14:37:00.612Z,8.32
2023-04-24T14:39:09.069Z,9.43
2023-04-24T14:41:14.352Z,8.25
2023-04-24T14:43:24.952Z,9.20
2023-04-24T14:45:45.758Z,9.45
2023-04-24T14:47:51.119Z,9.98
2023-04-24T14:50:00.746Z,10.20
2023-04-24T14:52:04.133Z,10.35
2023-04-24T14:54:07.002Z,8.82
2023-04-24T14:56:12.467Z,10.35
2023-04-24T14:58:17.475Z,9.30
2023-04-24T15:00:19.414Z,10.68
2023-04-24T15:02:42.958Z,9.07
2023-04-24T15:05:03.730Z,8.88
2023-04-24T15:07:07.964Z,10.55
2023-04-24T15:09:09.716Z,10.82
2023-04-24T15:11:11.298Z,10.90
2023-04-24T15:13:12.876Z,11.85
2023-04-24T15:15:17.299Z,12.68
2023-04-24T15:17:18.833Z,13.93
2023-04-24T15:21:24.391Z,13.38
2023-04-24T15:25:29.884Z,9.27
2023-04-24T15:27:51.719Z,11.05
2023-04-24T15:29:56.024Z,10.80
2023-04-24T15:31:57.559Z,11.02
2023-04-24T15:33:59.004Z,11.30
2023-04-24T15:36:00.500Z,9.60
2023-04-24T15:40:25.450Z,9.48
2023-04-24T15:42:27.524Z,10.75
2023-04-24T15:44:28.956Z,10.93
2023-04-24T15:46:30.733Z,10.43
2023-04-24T15:48:35.432Z,8.25
2023-04-24T15:50:39.568Z,8.38
2023-04-24T15:54:47.944Z,8.52
2023-04-24T15:56:50.873Z,7.18
2023-04-24T15:58:55.461Z,7.72
2023-04-24T16:00:57.114Z,8.15
2023-04-24T16:02:59.119Z,7.00
2023-04-24T16:05:01.397Z,7.50
2023-04-24T16:07:05.742Z,8.05
2023-04-24T16:09:10.395Z,6.72
2023-04-24T16:11:11.961Z,6.57
2023-04-24T16:13:34.285Z,5.80
2023-04-24T16:15:39.150Z,5.82
2023-04-24T16:17:44.345Z,7.07
2023-04-24T16:19:48.901Z,6.93
2023-04-24T16:21:50.422Z,6.72
2023-04-24T16:23:51.831Z,7.15
2023-04-24T16:25:53.390Z,8.38
2023-04-24T16:27:54.916Z,10.57
2023-04-24T16:30:15.244Z,7.70
2023-04-24T16:32:17.253Z,7.20
2023-04-24T16:34:18.930Z,8.40
2023-04-24T16:36:23.516Z,7.70
2023-04-24T16:38:43.580Z,6.65
2023-04-24T16:40:47.678Z,7.20
2023-04-24T16:42:52.907Z,8.13
2023-04-24T16:44:57.274Z,11.00
2023-04-24T16:47:01.872Z,9.50
2023-04-24T16:49:23.641Z,9.00
2023-04-24T16:51:25.322Z,9.85
2023-04-24T16:53:30.038Z,8.77
2023-04-24T16:55:31.580Z,9.02
2023-04-24T16:57:36.407Z,8.25
2023-04-24T16:59:40.766Z,8.50
2023-04-24T17:01:42.257Z,9.77
2023-04-24T17:05:51.137Z,8.73
2023-04-24T17:07:55.747Z,8.30
2023-04-24T17:10:00.360Z,8.35
2023-04-24T17:12:04.619Z,8.45
2023-04-24T17:14:06.399Z,9.38
2023-04-24T17:16:26.846Z,8.63
2023-04-24T17:18:28.349Z,10.10
2023-04-24T17:22:34.049Z,9.55
2023-04-24T17:24:39.185Z,9.95
2023-04-24T17:26:43.496Z,8.00
2023-04-24T17:28:58.430Z,9.73
2023-04-24T17:31:13.933Z,6.47
2023-04-24T17:33:26.245Z,3.33
2023-04-24T17:35:36.917Z,2.97
2023-04-24T17:37:46.900Z,1.65
2023-04-24T17:39:51.124Z,2.55
2023-04-24T17:42:12.996Z,1.98
2023-04-24T17:44:23.224Z,2.58
2023-04-24T17:46:32.636Z,2.38
2023-04-24T17:48:38.741Z,4.85
2023-04-24T17:50:51.025Z,4.38
2023-04-24T17:53:03.475Z,3.80
2023-04-24T17:55:16.762Z,4.38
2023-04-24T17:57:26.305Z,4.57
2023-04-24T17:59:31.372Z,4.35
2023-04-24T18:01:40.038Z,337.02
2023-04-24T18:03:45.824Z,300.55
2023-04-24T18:05:48.161Z,275.33
2023-04-24T18:07:49.627Z,264.15
2023-04-24T18:09:51.350Z,273.38
2023-04-24T18:11:52.807Z,263.42
2023-04-24T18:13:56.887Z,242.45
2023-04-24T18:16:01.252Z,246.00
2023-04-24T18:18:03.310Z,241.98
2023-04-24T18:20:23.480Z,264.70
2023-04-24T18:22:27.784Z,256.80
2023-04-24T18:24:31.804Z,256.50
2023-04-24T18:26:33.305Z,256.52
2023-04-24T18:28:34.811Z,239.95
2023-04-24T18:30:39.274Z,249.82
2023-04-24T18:32:43.762Z,232.00
2023-04-24T18:34:45.284Z,244.25
2023-04-24T18:37:05.367Z,251.93
2023-04-24T18:39:06.855Z,236.52
2023-04-24T18:41:08.369Z,217.48
2023-04-24T18:43:09.887Z,242.25
2023-04-24T18:45:14.672Z,243.38
2023-04-24T18:47:19.634Z,229.98
2023-04-24T18:49:21.047Z,210.00
2023-04-24T18:51:53.020Z,233.15
2023-04-24T18:53:55.839Z,224.48
2023-04-24T18:55:57.342Z,236.57
2023-04-24T18:57:58.825Z,228.07
2023-04-24T19:00:19.022Z,210.13
2023-04-24T19:02:20.890Z,221.82
2023-04-24T19:04:25.434Z,232.10
2023-04-24T19:08:33.842Z,212.20
2023-04-24T19:10:36.692Z,220.20
2023-04-24T19:12:41.101Z,209.20
2023-04-24T19:14:42.548Z,232.90
2023-04-24T19:16:47.222Z,222.32
2023-04-24T19:19:07.455Z,214.35
2023-04-24T19:21:09.124Z,222.07
2023-04-24T19:23:10.604Z,231.98
2023-04-24T19:25:14.631Z,223.07
2023-04-24T19:27:18.596Z,216.00
2023-04-24T19:31:27.211Z,196.55
2023-04-24T19:33:31.221Z,212.60
2023-04-24T19:35:51.492Z,212.63
2023-04-24T19:39:57.114Z,196.32
2023-04-24T19:42:19.403Z,199.20
2023-04-24T19:44:27.552Z,201.82
2023-04-24T19:46:29.022Z,199.70
2023-04-24T19:48:33.394Z,194.80
2023-04-24T19:50:37.845Z,205.23
2023-04-24T19:52:39.445Z,194.40
2023-04-24T19:54:40.974Z,190.32
2023-04-24T19:56:42.710Z,193.45
2023-04-24T19:58:44.152Z,204.65
2023-04-24T20:01:05.911Z,204.48
2023-04-24T20:03:21.559Z,198.25
2023-04-24T20:05:30.362Z,192.43
2023-04-24T20:07:34.554Z,179.98
2023-04-24T20:09:36.047Z,202.82
2023-04-24T20:11:56.999Z,181.95
2023-04-24T20:13:58.662Z,181.60
2023-04-24T20:16:18.619Z,191.77
2023-04-24T20:18:21.300Z,185.93
2023-04-24T20:20:22.769Z,198.73
2023-04-24T20:22:27.495Z,211.98
2023-04-24T20:24:29.099Z,197.05
2023-04-24T20:26:33.313Z,184.65
2023-04-24T20:28:35.012Z,199.63
2023-04-24T20:30:38.092Z,203.85
2023-04-24T20:32:42.729Z,206.18
2023-04-24T20:34:48.764Z,202.82
2023-04-24T20:36:53.227Z,190.70
2023-04-24T20:38:58.312Z,186.57
2023-04-24T20:41:00.213Z,182.85
2023-04-24T20:43:04.275Z,180.60
2023-04-24T20:45:08.539Z,166.93
2023-04-24T20:47:10.308Z,179.15
2023-04-24T20:49:30.975Z,167.52
2023-04-24T20:51:35.432Z,177.32
2023-04-24T20:53:39.590Z,184.82
2023-04-24T20:55:44.207Z,174.43
2023-04-24T20:57:48.684Z,165.82
2023-04-24T20:59:52.957Z,170.40
2023-04-24T21:01:57.538Z,155.18
2023-04-24T21:04:01.930Z,165.95
2023-04-24T21:06:22.354Z,165.50
2023-04-24T21:08:27.052Z,159.05
2023-04-24T21:10:31.773Z,157.02
2023-04-24T21:12:33.276Z,157.82
2023-04-24T21:14:37.537Z,167.02
2023-04-24T21:16:39.094Z,165.63
2023-04-24T21:18:43.360Z,161.82
2023-04-24T21:20:47.841Z,170.85
2023-04-24T21:24:56.230Z,156.73
2023-04-24T21:26:57.665Z,153.15
2023-04-24T21:29:02.124Z,152.60
2023-04-24T21:31:03.603Z,143.75
2023-04-24T21:33:08.161Z,147.45
2023-04-24T21:35:09.836Z,141.38
2023-04-24T21:37:30.631Z,143.27
2023-04-24T21:39:34.657Z,140.63
2023-04-24T21:41:38.997Z,146.18
2023-04-24T21:43:44.754Z,138.23
2023-04-24T21:45:50.264Z,131.35
2023-04-24T21:47:54.383Z,131.83
2023-04-24T21:49:55.967Z,128.33
2023-04-24T21:51:57.463Z,125.97
2023-04-24T21:56:06.173Z,121.25
2023-04-24T21:58:07.634Z,118.60
2023-04-24T22:00:12.068Z,123.10
2023-04-24T22:02:13.748Z,118.87
2023-04-24T22:04:18.401Z,121.17
2023-04-24T22:06:22.550Z,120.53
2023-04-24T22:08:26.937Z,116.70
2023-04-24T22:10:28.536Z,117.83
2023-04-24T22:12:32.951Z,120.63
2023-04-24T22:14:34.442Z,117.63
2023-04-24T22:16:36.020Z,118.97
2023-04-24T22:18:46.632Z,122.07
2023-04-24T22:20:49.243Z,123.97
2023-04-24T22:22:56.353Z,124.53
2023-04-24T22:25:04.350Z,131.53
2023-04-24T22:27:11.805Z,126.73
2023-04-24T22:29:16.213Z,126.70
2023-04-24T22:31:17.813Z,127.53
2023-04-24T22:33:19.327Z,125.90
2023-04-24T22:35:20.838Z,124.60
2023-04-24T22:37:40.664Z,123.60
2023-04-24T22:39:44.689Z,124.60
2023-04-24T22:42:04.833Z,122.43
2023-04-24T22:44:06.340Z,121.73
2023-04-24T22:48:14.871Z,116.85
2023-04-24T22:50:20.368Z,118.50
2023-04-24T22:52:21.848Z,119.10
2023-04-24T22:54:23.355Z,125.23
2023-04-24T22:56:27.379Z,122.50
2023-04-24T22:58:29.299Z,121.57
2023-04-24T23:00:30.819Z,119.17
2023-04-24T23:04:39.133Z,118.85
2023-04-24T23:06:46.516Z,116.67
2023-04-24T23:08:47.955Z,123.10
2023-04-24T23:10:55.557Z,120.10
2023-04-24T23:12:57.066Z,121.43
2023-04-24T23:17:05.904Z,116.13
2023-04-24T23:19:07.354Z,118.10
2023-04-24T23:21:27.535Z,116.33
2023-04-24T23:23:32.240Z,118.50
2023-04-24T23:25:33.856Z,118.73
2023-04-24T23:27:35.705Z,120.03
2023-04-24T23:29:39.916Z,122.87
2023-04-24T23:31:41.418Z,124.37
2023-04-24T23:33:49.556Z,117.07
2023-04-24T23:35:55.968Z,119.60
2023-04-24T23:38:16.435Z,118.90
2023-04-24T23:40:19.992Z,121.13
2023-04-24T23:44:27.522Z,113.43
2023-04-24T23:46:34.584Z,114.23
2023-04-24T23:48:38.696Z,115.33
2023-04-24T23:50:42.978Z,117.30
2023-04-24T23:52:46.978Z,115.00
2023-04-24T23:54:53.824Z,115.93
2023-04-24T23:57:00.882Z,116.40
2023-04-24T23:59:07.871Z,116.37
